Time;durP1;ratioP1;P1;durP2;ratioP2;P2;SDS_P1;SDS_P2;PMS_P1;PMS_P2;Temp;Humidity;BMP_temperature;BMP_pressure;BME280_temperature;BME280_humidity;BME280_pressure;Samples;Min_cycle;Max_cycle;Signal;HPM_P1;HPM_P2
2021/08/04 00:02:05;;;;;;;2.30;1.70;;;16.30;99.90;;;;;;4949625;28;20639;-93
2021/08/04 00:04:32;;;;;;;1.97;1.80;;;16.30;99.90;;;;;;4950583;28;20642;-93
2021/08/04 00:06:59;;;;;;;3.80;2.33;;;16.20;99.90;;;;;;4952330;28;20618;-93
2021/08/04 00:09:28;;;;;;;2.13;1.93;;;16.20;99.90;;;;;;4953207;28;20619;-92
2021/08/04 00:11:55;;;;;;;3.20;1.90;;;16.20;99.90;;;;;;4952040;28;20742;-93
2021/08/04 00:14:28;;;;;;;1.90;1.77;;;16.10;99.90;;;;;;4947277;28;20644;-92
2021/08/04 00:16:54;;;;;;;2.67;1.80;;;16.10;99.90;;;;;;4945443;28;20672;-92
2021/08/04 00:19:21;;;;;;;2.80;2.07;;;16.10;99.90;;;;;;4947931;28;21376;-93
2021/08/04 00:21:48;;;;;;;3.07;2.00;;;16.10;99.90;;;;;;4942891;28;20646;-92
2021/08/04 00:24:15;;;;;;;3.40;2.07;;;16.00;99.90;;;;;;4945415;28;20642;-92
2021/08/04 00:26:43;;;;;;;2.23;2.00;;;16.10;99.90;;;;;;4948973;28;20652;-93
2021/08/04 00:29:10;;;;;;;2.70;1.83;;;16.00;99.90;;;;;;4942544;28;20626;-93
2021/08/04 00:31:37;;;;;;;2.63;2.10;;;16.00;99.90;;;;;;4947486;28;20634;-91
2021/08/04 00:34:04;;;;;;;5.23;2.33;;;16.00;99.90;;;;;;4949571;28;20645;-91
2021/08/04 00:36:31;;;;;;;2.20;2.00;;;16.00;99.90;;;;;;4944498;28;20761;-92
2021/08/04 00:38:59;;;;;;;2.63;2.40;;;16.00;99.90;;;;;;4947000;28;20634;-92
2021/08/04 00:41:26;;;;;;;2.60;1.90;;;16.00;99.90;;;;;;4948934;28;20665;-93
2021/08/04 00:43:55;;;;;;;2.00;1.90;;;15.90;99.90;;;;;;4946168;28;20622;-92
2021/08/04 00:46:21;;;;;;;2.27;2.10;;;15.90;99.90;;;;;;4940974;28;21044;-90
2021/08/04 00:48:53;;;;;;;2.10;1.90;;;15.90;99.90;;;;;;4948181;28;20627;-91
2021/08/04 00:51:27;;;;;;;2.00;1.80;;;15.90;99.90;;;;;;4949157;28;20765;-90
2021/08/04 00:53:53;;;;;;;2.90;2.23;;;15.90;99.90;;;;;;4940874;28;20673;-89
2021/08/04 00:56:20;;;;;;;1.93;1.83;;;15.90;99.90;;;;;;4938167;28;20659;-89
2021/08/04 00:58:47;;;;;;;2.10;2.00;;;15.90;99.90;;;;;;4938165;28;20638;-88
2021/08/04 01:01:22;;;;;;;1.93;1.73;;;15.90;99.90;;;;;;4935220;28;20654;-88
2021/08/04 01:03:53;;;;;;;4.77;1.97;;;15.90;99.90;;;;;;4944070;28;20650;-91
2021/08/04 01:06:28;;;;;;;1.73;1.60;;;15.80;99.90;;;;;;4952199;28;20629;-90
2021/08/04 01:08:58;;;;;;;4.47;2.10;;;15.90;99.90;;;;;;4948581;28;20641;-91
2021/08/04 01:11:34;;;;;;;3.40;1.73;;;15.90;99.90;;;;;;4943947;28;20651;-90
2021/08/04 01:14:05;;;;;;;1.83;1.73;;;15.80;99.90;;;;;;4941314;28;20646;-90
2021/08/04 01:16:40;;;;;;;2.13;1.70;;;15.80;99.90;;;;;;4948596;28;20720;-90
2021/08/04 01:19:15;;;;;;;2.70;2.37;;;15.80;99.90;;;;;;4938652;28;21168;-89
2021/08/04 01:21:53;;;;;;;2.10;2.00;;;15.70;99.90;;;;;;4945500;28;20630;-89
2021/08/04 01:24:26;;;;;;;2.17;1.70;;;15.70;99.90;;;;;;4944646;28;20611;-89
2021/08/04 01:26:56;;;;;;;1.87;1.77;;;15.70;99.90;;;;;;4941182;28;20634;-88
2021/08/04 01:29:26;;;;;;;3.40;2.20;;;15.70;99.90;;;;;;4944570;28;21189;-90
2021/08/04 01:31:59;;;;;;;2.20;2.00;;;15.70;99.90;;;;;;4950908;28;20645;-89
2021/08/04 01:34:27;;;;;;;2.40;2.03;;;15.70;99.90;;;;;;4946952;28;20622;-88
2021/08/04 01:36:56;;;;;;;3.80;1.97;;;15.60;99.90;;;;;;4943637;28;20674;-89
2021/08/04 01:39:24;;;;;;;1.80;1.70;;;15.70;99.90;;;;;;4946145;28;20631;-89
2021/08/04 01:41:54;;;;;;;5.53;1.77;;;15.70;99.90;;;;;;4948817;28;20629;-90
2021/08/04 01:44:21;;;;;;;2.00;1.80;;;15.60;99.90;;;;;;4942481;28;20632;-90
2021/08/04 01:46:49;;;;;;;1.90;1.80;;;15.70;99.90;;;;;;4946702;28;20639;-89
2021/08/04 01:49:16;;;;;;;3.17;2.27;;;15.70;99.90;;;;;;4940871;28;20620;-90
2021/08/04 01:51:45;;;;;;;3.03;2.17;;;15.60;99.90;;;;;;4948502;28;20624;-92
2021/08/04 01:54:16;;;;;;;2.60;2.10;;;15.70;99.90;;;;;;4945747;28;20634;-89
2021/08/04 01:56:45;;;;;;;2.80;2.23;;;15.70;99.90;;;;;;4946720;28;20961;-89
2021/08/04 01:59:13;;;;;;;2.10;1.80;;;15.60;99.90;;;;;;4940999;28;20647;-89
2021/08/04 02:01:40;;;;;;;2.90;1.87;;;15.60;99.90;;;;;;4948243;28;20621;-89
2021/08/04 02:04:07;;;;;;;2.47;2.27;;;15.60;99.90;;;;;;4944273;28;20627;-91
2021/08/04 02:06:46;;;;;;;2.47;2.27;;;15.60;99.90;;;;;;4952256;28;20754;-90
2021/08/04 02:09:18;;;;;;;2.63;2.43;;;15.60;99.90;;;;;;4943930;28;20670;-90
2021/08/04 02:11:55;;;;;;;2.70;2.50;;;15.60;99.90;;;;;;4913311;28;20663;-89
2021/08/04 02:14:31;;;;;;;3.03;2.30;;;15.60;99.90;;;;;;4920985;29;20956;-88
2021/08/04 02:17:05;;;;;;;3.40;2.20;;;15.60;99.90;;;;;;4924228;29;20662;-90
2021/08/04 02:19:43;;;;;;;2.20;2.00;;;15.60;99.90;;;;;;4919516;29;20670;-90
2021/08/04 02:22:16;;;;;;;2.60;2.40;;;15.70;99.90;;;;;;4922702;29;20702;-89
2021/08/04 02:25:00;;;;;;;2.37;1.93;;;15.70;99.90;;;;;;4924709;29;21683;-89
2021/08/04 02:27:28;;;;;;;2.60;2.40;;;15.60;99.90;;;;;;4922693;29;20611;-90
2021/08/04 02:29:59;;;;;;;1.97;1.83;;;15.60;99.90;;;;;;4926049;29;20619;-89
2021/08/04 02:32:25;;;;;;;2.53;2.00;;;15.60;99.90;;;;;;4922649;29;20638;-90
2021/08/04 02:34:52;;;;;;;3.37;1.87;;;15.60;99.90;;;;;;4921319;29;20623;-90
2021/08/04 02:37:19;;;;;;;3.77;2.13;;;15.60;99.90;;;;;;4926322;29;20673;-92
2021/08/04 02:39:47;;;;;;;2.43;2.20;;;15.60;99.90;;;;;;4922648;29;20635;-91
2021/08/04 02:42:15;;;;;;;2.83;2.33;;;15.50;99.90;;;;;;4929391;29;20612;-90
2021/08/04 02:44:42;;;;;;;2.50;2.30;;;15.60;99.90;;;;;;4930200;29;20646;-91
2021/08/04 02:47:12;;;;;;;2.10;2.00;;;15.50;99.90;;;;;;4929369;29;21230;-91
2021/08/04 02:49:40;;;;;;;2.40;2.20;;;15.50;99.90;;;;;;4928517;29;20663;-91
2021/08/04 02:52:08;;;;;;;2.70;2.50;;;15.60;99.90;;;;;;4924554;29;20639;-91
2021/08/04 02:54:36;;;;;;;3.33;2.50;;;15.50;99.90;;;;;;4923432;29;21207;-91
2021/08/04 02:57:04;;;;;;;2.40;2.27;;;15.50;99.90;;;;;;4929479;29;21210;-91
2021/08/04 02:59:30;;;;;;;2.20;2.00;;;15.50;99.90;;;;;;4922345;29;21009;-91
2021/08/04 03:01:57;;;;;;;2.47;2.27;;;15.50;99.90;;;;;;4924280;29;20626;-91
2021/08/04 03:04:26;;;;;;;2.50;1.80;;;15.50;99.90;;;;;;4923449;29;20731;-91
2021/08/04 03:06:52;;;;;;;5.70;2.30;;;15.50;99.90;;;;;;4918974;29;20637;-91
2021/08/04 03:09:19;;;;;;;3.50;2.40;;;15.50;99.90;;;;;;4923958;29;20662;-91
2021/08/04 03:11:46;;;;;;;2.67;2.47;;;15.40;99.90;;;;;;4923020;29;20654;-91
2021/08/04 03:14:13;;;;;;;2.33;2.10;;;15.40;99.90;;;;;;4921499;29;20616;-91
2021/08/04 03:16:40;;;;;;;6.37;2.03;;;15.40;99.90;;;;;;4926411;29;21469;-91
2021/08/04 03:19:07;;;;;;;4.67;2.27;;;15.40;99.90;;;;;;4925426;29;20677;-90
2021/08/04 03:21:35;;;;;;;2.40;2.20;;;15.40;99.90;;;;;;4916714;29;20754;-91
2021/08/04 03:24:02;;;;;;;3.03;2.37;;;15.40;99.90;;;;;;4920004;29;20630;-90
2021/08/04 03:26:30;;;;;;;3.80;2.57;;;15.40;99.90;;;;;;4924534;29;20718;-90
2021/08/04 03:28:57;;;;;;;2.50;2.27;;;15.40;99.90;;;;;;4925169;29;20849;-90
2021/08/04 03:31:24;;;;;;;2.17;2.07;;;15.40;99.90;;;;;;4916688;29;20667;-90
2021/08/04 03:33:51;;;;;;;3.53;2.40;;;15.40;99.90;;;;;;4923143;29;20664;-91
2021/08/04 03:36:19;;;;;;;3.83;2.20;;;15.30;99.90;;;;;;4916881;29;20678;-91
2021/08/04 03:38:47;;;;;;;2.50;2.40;;;15.30;99.90;;;;;;4921646;29;20690;-90
2021/08/04 03:41:14;;;;;;;8.00;2.70;;;15.30;99.90;;;;;;4931572;29;20657;-92
2021/08/04 03:43:41;;;;;;;2.17;1.97;;;15.30;99.90;;;;;;4917544;29;20643;-91
2021/08/04 03:46:08;;;;;;;3.30;2.20;;;15.30;99.90;;;;;;4912740;29;20706;-91
2021/08/04 03:48:35;;;;;;;2.30;2.10;;;15.30;99.90;;;;;;4914911;29;20663;-91
2021/08/04 03:51:03;;;;;;;2.50;2.20;;;15.30;99.90;;;;;;4924661;29;20685;-90
2021/08/04 03:53:30;;;;;;;2.13;1.93;;;15.20;99.90;;;;;;4921752;29;20652;-91
2021/08/04 03:55:58;;;;;;;2.40;2.20;;;15.20;99.90;;;;;;4923830;29;20635;-91
2021/08/04 03:58:25;;;;;;;2.73;2.53;;;15.20;99.90;;;;;;4921560;29;20660;-92
2021/08/04 04:00:53;;;;;;;3.83;1.87;;;15.20;99.90;;;;;;4921409;29;21019;-91
2021/08/04 04:03:19;;;;;;;3.03;2.10;;;15.20;99.90;;;;;;4922107;29;20616;-91
2021/08/04 04:05:46;;;;;;;2.60;2.30;;;15.10;99.90;;;;;;4926405;29;20621;-91
2021/08/04 04:08:13;;;;;;;2.40;2.20;;;15.10;99.90;;;;;;4920138;29;20631;-91
2021/08/04 04:10:40;;;;;;;4.90;2.00;;;15.10;99.90;;;;;;4926871;29;21009;-89
2021/08/04 04:13:08;;;;;;;3.00;2.40;;;15.10;99.90;;;;;;4926413;29;20651;-91
2021/08/04 04:15:35;;;;;;;2.00;1.90;;;15.10;99.90;;;;;;4923247;29;20723;-91
2021/08/04 04:18:02;;;;;;;2.87;2.20;;;15.00;99.90;;;;;;4918641;29;20665;-90
2021/08/04 04:20:28;;;;;;;2.77;2.57;;;15.00;99.90;;;;;;4918420;29;20687;-90
2021/08/04 04:22:55;;;;;;;3.63;2.40;;;15.00;99.90;;;;;;4919546;29;20620;-90
2021/08/04 04:25:22;;;;;;;2.80;2.60;;;15.00;99.90;;;;;;4924504;29;20702;-90
2021/08/04 04:27:49;;;;;;;2.07;1.87;;;15.10;99.90;;;;;;4923643;29;20695;-89
2021/08/04 04:30:18;;;;;;;2.50;2.37;;;15.10;99.90;;;;;;4922381;29;20663;-90
2021/08/04 04:32:45;;;;;;;2.57;2.37;;;15.10;99.90;;;;;;4916106;29;21151;-89
2021/08/04 04:35:12;;;;;;;4.30;3.20;;;15.10;99.90;;;;;;4922224;29;20735;-90
2021/08/04 04:37:39;;;;;;;5.43;2.87;;;15.10;99.90;;;;;;4917496;29;20664;-90
2021/08/04 04:40:07;;;;;;;2.63;2.43;;;15.10;99.90;;;;;;4922886;29;20652;-90
2021/08/04 04:42:34;;;;;;;3.20;2.70;;;15.10;99.90;;;;;;4918385;29;20640;-90
2021/08/04 04:45:01;;;;;;;2.40;2.20;;;15.10;99.90;;;;;;4915106;29;20689;-90
2021/08/04 04:47:29;;;;;;;3.63;2.37;;;15.10;99.90;;;;;;4921281;29;20685;-90
2021/08/04 04:49:56;;;;;;;3.17;2.87;;;15.10;99.90;;;;;;4927967;29;21027;-90
2021/08/04 04:52:23;;;;;;;2.60;2.40;;;15.10;99.90;;;;;;4922312;29;20621;-90
2021/08/04 04:54:50;;;;;;;2.30;2.10;;;15.20;99.90;;;;;;4924454;29;20991;-90
2021/08/04 04:57:18;;;;;;;2.77;2.57;;;15.20;99.90;;;;;;4921409;29;20742;-90
2021/08/04 04:59:45;;;;;;;2.37;1.90;;;15.20;99.90;;;;;;4919703;29;20675;-88
2021/08/04 05:02:12;;;;;;;3.13;2.57;;;15.30;99.90;;;;;;4917319;29;20635;-90
2021/08/04 05:04:40;;;;;;;2.87;2.67;;;15.30;99.90;;;;;;4918852;29;20633;-90
2021/08/04 05:07:07;;;;;;;3.50;3.17;;;15.30;99.90;;;;;;4925528;29;20643;-90
2021/08/04 05:09:37;;;;;;;3.23;2.70;;;15.40;99.90;;;;;;4924965;29;20754;-91
2021/08/04 05:12:05;;;;;;;2.80;2.43;;;15.40;99.90;;;;;;4919332;29;20646;-90
2021/08/04 05:14:31;;;;;;;2.53;2.30;;;15.40;99.90;;;;;;4917852;29;20635;-90
2021/08/04 05:16:59;;;;;;;3.50;2.40;;;15.50;99.90;;;;;;4921601;29;20622;-90
2021/08/04 05:19:26;;;;;;;2.87;2.57;;;15.50;99.90;;;;;;4916688;29;21112;-89
2021/08/04 05:21:54;;;;;;;3.47;2.63;;;15.60;99.90;;;;;;4923533;29;20664;-90
2021/08/04 05:24:21;;;;;;;2.57;2.40;;;15.60;99.90;;;;;;4921329;29;20663;-89
2021/08/04 05:26:48;;;;;;;4.33;2.70;;;15.60;99.90;;;;;;4922753;29;20647;-91
2021/08/04 05:29:15;;;;;;;3.50;3.20;;;15.70;99.90;;;;;;4919315;29;20766;-90
2021/08/04 05:31:42;;;;;;;4.83;3.13;;;15.80;99.90;;;;;;4917174;29;21028;-90
2021/08/04 05:34:09;;;;;;;3.30;2.97;;;15.90;99.90;;;;;;4913923;29;20628;-90
2021/08/04 05:36:36;;;;;;;2.67;2.47;;;16.00;99.90;;;;;;4914390;29;20639;-90
2021/08/04 05:39:04;;;;;;;3.17;2.80;;;15.90;99.90;;;;;;4911663;29;20670;-91
2021/08/04 05:41:31;;;;;;;5.07;3.00;;;16.00;99.90;;;;;;4921140;29;20670;-90
2021/08/04 05:43:58;;;;;;;3.13;2.83;;;16.10;99.90;;;;;;4919781;29;20619;-89
2021/08/04 05:46:25;;;;;;;3.73;2.47;;;16.10;99.90;;;;;;4923006;29;20640;-90
2021/08/04 05:48:51;;;;;;;4.47;2.60;;;16.20;99.90;;;;;;4922332;29;20633;-89
2021/08/04 05:51:18;;;;;;;2.73;2.50;;;16.30;99.90;;;;;;4918399;29;20675;-90
2021/08/04 05:53:45;;;;;;;4.23;2.73;;;16.30;99.90;;;;;;4922124;29;21210;-90
2021/08/04 05:56:13;;;;;;;2.80;2.50;;;16.40;99.90;;;;;;4924778;29;20631;-90
2021/08/04 05:58:40;;;;;;;4.10;2.20;;;16.40;99.90;;;;;;4923687;29;20670;-90
2021/08/04 06:01:07;;;;;;;3.70;2.63;;;16.50;99.90;;;;;;4921566;29;21218;-90
2021/08/04 06:03:37;;;;;;;2.60;2.03;;;16.50;99.90;;;;;;4924691;29;20638;-90
2021/08/04 06:06:05;;;;;;;4.90;2.20;;;16.60;99.90;;;;;;4916761;29;21233;-90
2021/08/04 06:08:32;;;;;;;2.37;2.17;;;16.70;99.90;;;;;;4921836;29;20628;-89
2021/08/04 06:10:59;;;;;;;2.03;1.83;;;16.70;99.90;;;;;;4913815;29;20662;-90
2021/08/04 06:13:27;;;;;;;3.87;2.30;;;16.70;99.90;;;;;;4925212;29;20623;-90
2021/08/04 06:15:54;;;;;;;2.43;2.00;;;16.80;99.90;;;;;;4917716;29;21085;-90
2021/08/04 06:18:21;;;;;;;2.27;2.03;;;16.70;99.90;;;;;;4916812;29;20703;-89
2021/08/04 06:20:48;;;;;;;2.40;2.20;;;16.80;99.90;;;;;;4918273;29;20657;-90
2021/08/04 06:23:15;;;;;;;2.67;2.23;;;16.80;99.90;;;;;;4917960;29;20620;-91
2021/08/04 06:25:42;;;;;;;6.30;2.23;;;16.80;99.90;;;;;;4914816;29;21002;-90
2021/08/04 06:28:09;;;;;;;2.43;1.90;;;16.80;99.90;;;;;;4917355;29;20620;-91
2021/08/04 06:30:37;;;;;;;4.10;1.90;;;16.80;99.90;;;;;;4920819;29;20635;-89
2021/08/04 06:33:05;;;;;;;2.00;1.80;;;16.90;99.90;;;;;;4928989;29;21059;-90
2021/08/04 06:35:33;;;;;;;2.03;1.93;;;16.90;99.90;;;;;;4926211;29;20674;-90
2021/08/04 06:38:00;;;;;;;3.43;2.00;;;17.00;99.90;;;;;;4918590;29;20652;-90
2021/08/04 06:40:27;;;;;;;2.53;2.33;;;17.00;99.90;;;;;;4916042;29;20639;-90
2021/08/04 06:42:55;;;;;;;3.20;2.90;;;17.20;99.90;;;;;;4914951;29;21198;-90
2021/08/04 06:45:22;;;;;;;2.70;2.27;;;17.40;99.90;;;;;;4917027;29;20986;-91
2021/08/04 06:47:51;;;;;;;3.60;2.90;;;17.50;99.90;;;;;;4920858;29;20619;-89
2021/08/04 06:50:18;;;;;;;2.27;2.17;;;17.60;99.90;;;;;;4916484;29;20635;-90
2021/08/04 06:52:45;;;;;;;3.17;2.87;;;17.60;99.90;;;;;;4917288;29;20620;-90
2021/08/04 06:55:12;;;;;;;2.53;2.33;;;17.70;99.90;;;;;;4925765;29;20630;-93
2021/08/04 06:57:39;;;;;;;2.70;2.37;;;17.70;99.90;;;;;;4924964;29;20655;-89
2021/08/04 07:00:07;;;;;;;3.43;2.87;;;17.80;99.90;;;;;;4920282;29;21422;-91
2021/08/04 07:02:35;;;;;;;2.37;2.17;;;17.80;99.90;;;;;;4919838;29;20662;-96
2021/08/04 07:05:07;;;;;;;5.30;2.20;;;17.90;99.90;;;;;;4933282;29;20631;-96
2021/08/04 07:07:46;;;;;;;4.17;2.17;;;18.00;99.90;;;;;;4927139;29;21270;-95
2021/08/04 07:10:15;;;;;;;2.60;2.40;;;18.10;99.90;;;;;;4929248;29;20694;-96
2021/08/04 07:12:42;;;;;;;5.70;2.00;;;18.20;99.90;;;;;;4921659;29;20659;-92
2021/08/04 07:15:09;;;;;;;9.23;3.03;;;18.20;99.90;;;;;;4923724;29;21154;-92
2021/08/04 07:17:44;;;;;;;2.33;1.93;;;18.30;99.90;;;;;;4923762;28;20623;-92
2021/08/04 07:20:13;;;;;;;2.30;1.80;;;18.40;99.90;;;;;;4929449;29;20637;-93
2021/08/04 07:22:49;;;;;;;2.50;2.13;;;18.50;99.90;;;;;;4924567;29;21215;-95
2021/08/04 07:25:17;;;;;;;2.77;2.03;;;18.50;99.90;;;;;;4932340;29;20645;-90
2021/08/04 07:27:44;;;;;;;2.90;2.33;;;18.60;99.90;;;;;;4926927;29;20642;-90
2021/08/04 07:30:14;;;;;;;1.83;1.60;;;18.50;99.90;;;;;;4922754;29;20646;-90
2021/08/04 07:32:40;;;;;;;2.60;2.23;;;18.50;99.90;;;;;;4916588;29;21055;-91
2021/08/04 07:35:08;;;;;;;2.60;2.40;;;18.60;99.90;;;;;;4928801;29;21269;-96
2021/08/04 07:37:37;;;;;;;3.10;2.73;;;18.70;99.90;;;;;;4969536;23;20700;-93
2021/08/04 07:40:08;;;;;;;2.87;2.20;;;18.70;99.90;;;;;;4935174;29;20674;-96
2021/08/04 08:47:53;;;;;;;2.33;2.00;;;21.10;99.90;;;;;;5953749;23;20571;-96
2021/08/04 09:38:40;;;;;;;1.63;1.53;;;22.90;99.20;;;;;;5821701;23;20676;-96
2021/08/04 09:41:21;;;;;;;1.60;1.50;;;23.00;99.90;;;;;;5550034;23;21154;-96
2021/08/04 09:44:02;;;;;;;2.40;1.47;;;23.10;99.90;;;;;;4993592;23;20813;-91
2021/08/04 09:46:29;;;;;;;2.07;1.43;;;23.10;99.90;;;;;;4943669;28;20733;-93
2021/08/04 09:49:11;;;;;;;1.93;1.83;;;23.20;99.80;;;;;;4936191;28;20629;-92
2021/08/04 09:51:38;;;;;;;2.40;2.10;;;23.20;99.20;;;;;;4935884;28;21497;-92
2021/08/04 09:54:11;;;;;;;2.13;1.80;;;23.00;98.60;;;;;;4937973;28;20634;-92
2021/08/04 09:56:49;;;;;;;3.10;1.80;;;23.00;98.30;;;;;;4941484;28;20626;-91
2021/08/04 09:59:16;;;;;;;1.77;1.67;;;22.90;98.70;;;;;;4933036;28;21252;-92
2021/08/04 10:01:44;;;;;;;4.03;1.70;;;22.90;98.90;;;;;;4940089;28;20616;-91
2021/08/04 10:04:12;;;;;;;2.10;1.57;;;23.00;98.40;;;;;;4941746;28;20809;-91
2021/08/04 10:06:41;;;;;;;1.80;1.60;;;23.00;97.90;;;;;;4938145;28;20636;-92
2021/08/04 10:09:10;;;;;;;1.73;1.63;;;22.70;99.90;;;;;;4944246;28;20629;-95
2021/08/04 10:24:55;;;;;;;4.20;1.50;;;23.10;96.80;;;;;;4948906;29;20659;-96
2021/08/04 10:27:25;;;;;;;1.50;1.40;;;23.30;96.70;;;;;;4936746;29;20636;-96
2021/08/04 10:30:34;;;;;;;1.70;1.60;;;23.40;97.00;;;;;;4944376;29;20660;-96
2021/08/04 10:33:20;;;;;;;1.70;1.60;;;23.60;98.20;;;;;;4941341;29;20696;-96
2021/08/04 13:06:51;;;;;;;1.47;1.30;;;24.80;91.70;;;;;;4973791;29;20710;-96
2021/08/04 13:09:19;;;;;;;2.50;1.60;;;24.80;93.60;;;;;;4974584;29;20607;-96
2021/08/04 13:11:48;;;;;;;1.40;1.30;;;24.80;91.80;;;;;;4977409;29;20595;-96
2021/08/04 13:14:23;;;;;;;2.20;1.40;;;24.80;91.80;;;;;;4977774;29;20626;-96
2021/08/04 13:16:50;;;;;;;1.50;1.40;;;24.80;90.70;;;;;;4958297;29;20651;-96
2021/08/04 13:19:25;;;;;;;2.53;1.70;;;24.60;92.10;;;;;;4956369;29;20667;-96
2021/08/04 13:22:04;;;;;;;1.50;1.40;;;24.50;91.90;;;;;;4957839;29;20658;-96
2021/08/04 13:28:04;;;;;;;2.30;1.67;;;24.40;92.50;;;;;;4938359;29;20524;-96
2021/08/04 13:36:28;;;;;;;1.67;1.57;;;24.00;93.10;;;;;;4977200;29;20613;-96
2021/08/04 13:45:36;;;;;;;1.40;1.30;;;23.60;94.70;;;;;;4939229;29;21231;-96
2021/08/04 13:48:17;;;;;;;2.20;1.30;;;23.50;97.80;;;;;;4944123;29;20635;-96
2021/08/04 15:59:51;;;;;;;2.17;1.60;;;20.90;99.90;;;;;;5235210;23;20693;-94
2021/08/04 16:02:26;;;;;;;1.97;1.77;;;20.90;99.90;;;;;;4956930;28;20627;-96
2021/08/04 16:04:53;;;;;;;1.93;1.83;;;20.90;99.90;;;;;;4947434;28;20697;-96
2021/08/04 16:07:23;;;;;;;2.13;1.70;;;21.00;99.90;;;;;;4975778;28;20639;-96
2021/08/04 16:15:24;;;;;;;2.30;1.30;;;21.00;99.90;;;;;;5153331;23;20676;-96
2021/08/04 16:17:53;;;;;;;1.80;1.60;;;21.00;99.90;;;;;;4937931;29;20624;-96
2021/08/04 16:20:22;;;;;;;2.73;1.50;;;21.00;99.90;;;;;;4936960;29;20754;-96
2021/08/04 16:22:49;;;;;;;1.73;1.53;;;21.00;99.90;;;;;;4935551;29;20652;-96
2021/08/04 16:25:17;;;;;;;3.30;1.80;;;21.00;99.90;;;;;;4937309;29;20656;-95
2021/08/04 16:27:44;;;;;;;2.10;1.90;;;21.00;99.90;;;;;;4935898;29;20649;-96
2021/08/04 16:30:17;;;;;;;2.27;1.60;;;21.10;99.90;;;;;;4941147;29;20688;-96
2021/08/04 16:32:47;;;;;;;1.20;1.10;;;21.10;99.90;;;;;;4931824;29;20620;-96
2021/08/04 16:35:15;;;;;;;1.90;1.63;;;20.90;99.90;;;;;;4940977;29;20671;-96
2021/08/04 16:37:43;;;;;;;2.30;2.10;;;20.90;99.90;;;;;;4972531;23;20607;-96
2021/08/04 16:40:11;;;;;;;1.50;1.33;;;20.80;99.90;;;;;;4957554;29;20735;-96
2021/08/04 16:42:38;;;;;;;3.73;1.97;;;20.70;99.90;;;;;;4964435;28;20637;-96
2021/08/04 16:45:07;;;;;;;1.23;1.00;;;20.70;99.90;;;;;;4961573;29;20631;-95
2021/08/04 16:47:36;;;;;;;1.50;1.40;;;20.60;99.90;;;;;;4953893;29;20633;-96
2021/08/04 16:50:06;;;;;;;1.90;1.80;;;20.50;99.90;;;;;;4936906;29;20628;-95
2021/08/04 16:52:42;;;;;;;1.70;1.50;;;20.50;99.90;;;;;;4940025;29;21081;-94
2021/08/04 16:55:10;;;;;;;1.33;1.20;;;20.40;99.90;;;;;;4947034;29;20666;-96
2021/08/04 16:57:39;;;;;;;1.60;1.50;;;20.30;99.90;;;;;;4942069;29;20638;-96
2021/08/04 17:00:08;;;;;;;1.93;1.73;;;20.20;99.90;;;;;;4951101;29;20710;-96
2021/08/04 17:02:35;;;;;;;1.40;1.30;;;20.20;99.90;;;;;;4949712;29;20663;-96
2021/08/04 17:05:04;;;;;;;2.10;1.60;;;20.10;99.90;;;;;;4957240;29;20667;-96
2021/08/04 17:07:31;;;;;;;2.03;1.93;;;20.00;99.90;;;;;;4950679;29;20619;-96
2021/08/04 17:10:00;;;;;;;2.77;2.20;;;20.00;99.90;;;;;;4950783;29;20648;-96
2021/08/04 17:12:27;;;;;;;2.10;1.90;;;20.00;99.90;;;;;;4952090;29;20690;-95
2021/08/04 17:14:55;;;;;;;1.67;1.57;;;19.90;99.90;;;;;;4959607;29;20635;-96
2021/08/04 17:17:22;;;;;;;1.90;1.70;;;19.80;99.90;;;;;;4950725;29;20616;-96
2021/08/04 17:19:50;;;;;;;2.30;2.10;;;19.80;99.90;;;;;;4933682;29;20746;-96
2021/08/04 17:22:17;;;;;;;1.67;1.57;;;19.70;99.90;;;;;;4950515;29;20695;-96
2021/08/04 17:24:45;;;;;;;1.70;1.60;;;19.70;99.90;;;;;;4952012;29;20707;-96
2021/08/04 17:27:16;;;;;;;1.53;1.43;;;19.70;99.90;;;;;;4956746;29;20631;-96
2021/08/04 17:29:45;;;;;;;2.13;1.80;;;19.60;99.90;;;;;;4951082;29;20651;-96
2021/08/04 17:32:13;;;;;;;2.10;1.63;;;19.60;99.90;;;;;;4951656;29;21071;-96
2021/08/04 17:34:50;;;;;;;2.83;1.90;;;19.50;99.90;;;;;;4949803;29;21242;-96
2021/08/04 17:37:19;;;;;;;4.77;1.80;;;19.50;99.90;;;;;;4956435;29;20614;-96
2021/08/04 17:40:33;;;;;;;2.27;1.40;;;19.40;99.90;;;;;;4956974;29;20764;-96
2021/08/04 17:43:03;;;;;;;2.30;1.90;;;19.40;99.90;;;;;;4948372;29;21187;-96
2021/08/04 17:45:35;;;;;;;2.57;2.10;;;19.30;99.90;;;;;;4955835;29;20629;-96
2021/08/04 17:48:04;;;;;;;3.33;1.57;;;19.30;99.90;;;;;;4937515;29;20691;-96
2021/08/04 17:50:31;;;;;;;3.30;1.90;;;19.30;99.90;;;;;;4948765;29;20643;-95
2021/08/04 17:52:58;;;;;;;1.80;1.70;;;19.30;99.90;;;;;;4952350;29;21271;-96
2021/08/04 17:55:25;;;;;;;2.67;1.80;;;19.20;99.90;;;;;;4953347;29;20721;-96
2021/08/04 17:57:53;;;;;;;1.90;1.67;;;19.20;99.90;;;;;;4949066;28;20750;-96
2021/08/04 18:00:24;;;;;;;1.93;1.80;;;19.20;99.90;;;;;;4950985;29;20727;-96
2021/08/04 18:03:21;;;;;;;2.30;2.10;;;19.10;99.90;;;;;;4954618;29;20725;-96
2021/08/04 18:05:48;;;;;;;2.47;1.53;;;19.10;99.90;;;;;;4949321;29;20667;-96
2021/08/04 18:08:18;;;;;;;2.97;1.90;;;19.10;99.90;;;;;;4932507;29;20690;-96
2021/08/04 18:10:45;;;;;;;2.20;1.90;;;19.00;99.90;;;;;;4940411;29;20627;-95
2021/08/04 18:13:14;;;;;;;3.20;2.07;;;19.10;99.90;;;;;;4954964;29;20631;-96
2021/08/04 18:15:43;;;;;;;2.40;2.20;;;19.10;99.90;;;;;;4977341;28;20638;-96
2021/08/04 18:21:33;;;;;;;1.70;1.60;;;19.00;99.90;;;;;;4974422;29;20590;-96
2021/08/04 18:24:14;;;;;;;2.03;1.93;;;19.00;99.90;;;;;;4955470;29;20627;-96
2021/08/04 18:26:41;;;;;;;2.40;2.20;;;18.90;99.90;;;;;;4949530;29;20564;-96
2021/08/04 18:29:51;;;;;;;2.37;1.80;;;18.90;99.90;;;;;;4956996;29;20666;-96
2021/08/04 18:32:22;;;;;;;3.40;3.10;;;18.90;99.90;;;;;;4961450;29;20642;-96
2021/08/04 18:34:50;;;;;;;3.17;2.97;;;18.90;99.90;;;;;;4958962;28;20663;-96
2021/08/04 18:37:17;;;;;;;2.80;2.50;;;18.90;99.90;;;;;;4956149;29;20631;-96
2021/08/04 18:39:45;;;;;;;2.90;2.53;;;18.90;99.90;;;;;;4974791;28;20666;-96
2021/08/04 18:42:12;;;;;;;3.87;3.47;;;18.80;99.90;;;;;;4960609;28;20635;-96
2021/08/04 18:44:39;;;;;;;4.37;3.40;;;18.80;99.90;;;;;;4954654;29;20655;-96
2021/08/04 18:47:08;;;;;;;2.60;2.20;;;18.80;99.90;;;;;;4953275;29;20624;-96
2021/08/04 18:49:36;;;;;;;2.30;2.10;;;18.80;99.90;;;;;;4964657;29;20679;-96
2021/08/04 18:52:04;;;;;;;2.77;2.57;;;18.70;99.90;;;;;;4956214;29;20667;-96
2021/08/04 18:54:48;;;;;;;3.00;2.10;;;18.70;99.90;;;;;;4958013;29;20711;-96
2021/08/04 18:57:46;;;;;;;7.00;2.47;;;18.60;99.90;;;;;;4957941;29;20693;-96
2021/08/04 19:00:25;;;;;;;2.80;1.87;;;18.60;99.90;;;;;;4936274;29;20687;-96
2021/08/04 19:02:56;;;;;;;7.50;6.90;;;18.50;99.90;;;;;;4958055;29;20635;-96
2021/08/04 19:05:56;;;;;;;7.93;7.40;;;18.50;99.90;;;;;;4956874;29;20667;-96
2021/08/04 19:21:52;;;;;;;2.03;1.87;;;18.40;99.90;;;;;;4974933;28;20706;-96
2021/08/04 19:25:03;;;;;;;1.77;1.67;;;18.40;99.90;;;;;;4961730;28;20666;-96
2021/08/04 19:40:08;;;;;;;1.93;1.80;;;18.20;99.90;;;;;;4922695;29;20596;-96
2021/08/04 19:42:35;;;;;;;2.30;2.10;;;18.10;99.90;;;;;;4920999;29;20606;-96
2021/08/04 19:45:07;;;;;;;2.70;2.50;;;18.10;99.90;;;;;;4920311;29;20684;-96
2021/08/04 19:47:35;;;;;;;2.93;2.47;;;18.10;99.90;;;;;;4920257;29;20632;-96
2021/08/04 19:50:14;;;;;;;2.33;2.13;;;18.00;99.90;;;;;;4919203;29;20649;-96
2021/08/04 20:27:52;;;;;;;1.97;1.87;;;17.60;99.90;;;;;;4947017;29;20662;-92
2021/08/04 20:30:20;;;;;;;2.50;2.37;;;17.60;99.90;;;;;;4932050;29;20619;-95
2021/08/04 20:32:49;;;;;;;2.80;2.20;;;17.60;99.90;;;;;;4948198;28;20595;-94
2021/08/04 20:35:16;;;;;;;3.90;1.73;;;17.60;99.90;;;;;;4942250;29;20641;-94
2021/08/04 20:37:50;;;;;;;2.30;2.10;;;17.60;99.90;;;;;;4936437;29;20616;-94
2021/08/04 20:46:16;;;;;;;2.73;1.93;;;17.50;99.90;;;;;;4921683;29;20612;-94
2021/08/04 20:55:28;;;;;;;2.07;1.57;;;17.40;99.90;;;;;;4937257;29;20672;-94
2021/08/04 21:03:19;;;;;;;2.43;2.20;;;17.30;99.90;;;;;;4918691;29;21080;-93
2021/08/04 21:05:47;;;;;;;2.43;2.20;;;17.30;99.90;;;;;;4908910;29;20671;-92
2021/08/04 21:19:25;;;;;;;1.93;1.83;;;17.30;99.90;;;;;;4927909;29;21043;-94
2021/08/04 21:21:52;;;;;;;4.30;1.80;;;17.40;99.90;;;;;;4909497;29;20723;-93
2021/08/04 21:24:19;;;;;;;2.80;2.60;;;17.30;99.90;;;;;;4913633;29;20721;-93
2021/08/04 21:26:48;;;;;;;2.47;2.27;;;17.30;99.90;;;;;;4910039;29;20648;-94
2021/08/04 21:29:14;;;;;;;1.87;1.77;;;17.30;99.90;;;;;;4905990;29;20640;-93
2021/08/04 21:31:42;;;;;;;2.40;2.20;;;17.30;99.90;;;;;;4908978;29;21210;-94
2021/08/04 21:34:09;;;;;;;2.70;2.50;;;17.30;99.90;;;;;;4911397;29;20660;-94
2021/08/04 21:36:37;;;;;;;2.60;2.40;;;17.30;99.90;;;;;;4910104;29;20638;-93
2021/08/04 21:39:04;;;;;;;1.93;1.83;;;17.30;99.90;;;;;;4910336;29;20628;-95
2021/08/04 21:41:31;;;;;;;2.50;2.30;;;17.20;99.90;;;;;;4914232;29;21042;-93
2021/08/04 21:43:58;;;;;;;3.60;2.10;;;17.20;99.90;;;;;;4910681;29;20644;-94